Time;durP1;ratioP1;P1;durP2;ratioP2;P2;SDS_P1;SDS_P2;PMS_P1;PMS_P2;Temp;Humidity;BMP_temperature;BMP_pressure;BME280_temperature;BME280_humidity;BME280_pressure;Samples;Min_cycle;Max_cycle;Signal;HPM_P1;HPM_P2
2024/02/29 00:01:01;;;;;;;15.40;7.07;;;;;;;;;;6184220;28;20110;-77
2024/02/29 00:04:03;;;;;;;15.45;7.28;;;;;;;;;;6182828;28;22380;-77
2024/02/29 00:07:05;;;;;;;17.52;8.73;;;;;;;;;;6184908;28;20054;-76
2024/02/29 00:10:08;;;;;;;15.35;7.53;;;;;;;;;;6179947;28;20050;-80
2024/02/29 00:13:11;;;;;;;15.48;7.45;;;;;;;;;;6181464;28;20513;-78
2024/02/29 00:16:13;;;;;;;17.30;8.10;;;;;;;;;;6183625;28;20438;-80
2024/02/29 00:19:15;;;;;;;13.93;7.03;;;;;;;;;;6193227;28;20050;-77
2024/02/29 00:22:17;;;;;;;15.85;7.10;;;;;;;;;;6189577;28;20058;-79
2024/02/29 00:25:18;;;;;;;17.92;7.07;;;;;;;;;;6184083;28;20061;-80
2024/02/29 00:28:20;;;;;;;18.15;8.02;;;;;;;;;;6181845;28;20054;-78
2024/02/29 00:31:24;;;;;;;18.88;7.97;;;;;;;;;;6184895;28;20505;-81
2024/02/29 00:34:27;;;;;;;16.20;7.65;;;;;;;;;;6173965;28;20066;-81
2024/02/29 00:37:28;;;;;;;18.15;7.72;;;;;;;;;;6179761;28;20054;-78
2024/02/29 00:40:30;;;;;;;17.05;6.45;;;;;;;;;;6157027;28;20055;-77
2024/02/29 00:43:32;;;;;;;16.85;7.15;;;;;;;;;;6189501;28;20124;-80
2024/02/29 00:46:36;;;;;;;15.13;7.00;;;;;;;;;;6184884;28;20047;-80
2024/02/29 00:49:39;;;;;;;16.95;7.40;;;;;;;;;;6177121;28;20127;-79
2024/02/29 00:52:41;;;;;;;15.65;6.97;;;;;;;;;;6174523;28;20057;-80
2024/02/29 00:55:43;;;;;;;14.20;6.47;;;;;;;;;;6179897;28;20047;-80
2024/02/29 00:58:45;;;;;;;13.57;6.45;;;;;;;;;;6184886;28;20818;-81
2024/02/29 01:01:47;;;;;;;16.70;6.97;;;;;;;;;;6184659;28;20047;-80
2024/02/29 01:04:49;;;;;;;15.70;6.25;;;;;;;;;;6172160;28;20035;-80
2024/02/29 01:07:51;;;;;;;16.27;6.68;;;;;;;;;;6169797;28;20046;-76
2024/02/29 01:10:52;;;;;;;15.73;6.60;;;;;;;;;;6174728;28;20440;-79
2024/02/29 01:13:54;;;;;;;20.02;7.20;;;;;;;;;;6177227;28;20513;-79
2024/02/29 01:16:56;;;;;;;18.77;7.32;;;;;;;;;;6182155;28;20057;-77
2024/02/29 01:19:58;;;;;;;19.27;8.20;;;;;;;;;;6177999;28;20046;-79
2024/02/29 01:23:00;;;;;;;14.70;7.28;;;;;;;;;;6181725;28;20047;-77
2024/02/29 01:26:03;;;;;;;16.35;6.65;;;;;;;;;;6193793;28;20051;-80
2024/02/29 01:29:05;;;;;;;14.55;6.72;;;;;;;;;;6184195;28;20149;-77
2024/02/29 01:32:07;;;;;;;16.48;7.05;;;;;;;;;;6177718;28;20046;-76
2024/02/29 01:35:23;;;;;;;18.85;6.70;;;;;;;;;;6171874;28;20533;-77
2024/02/29 01:38:24;;;;;;;16.85;7.35;;;;;;;;;;6185636;28;20050;-78
2024/02/29 01:41:26;;;;;;;19.85;7.78;;;;;;;;;;6179174;28;20043;-79
2024/02/29 01:44:28;;;;;;;15.95;7.18;;;;;;;;;;6184499;28;20058;-77
2024/02/29 01:47:30;;;;;;;17.63;7.28;;;;;;;;;;6179277;28;20081;-81
2024/02/29 01:50:32;;;;;;;17.00;7.40;;;;;;;;;;6163676;28;20046;-77
2024/02/29 01:53:34;;;;;;;15.93;7.32;;;;;;;;;;6175836;28;20742;-81
2024/02/29 01:56:36;;;;;;;16.38;7.13;;;;;;;;;;6180040;28;20054;-79
2024/02/29 01:59:37;;;;;;;14.52;7.07;;;;;;;;;;6182143;28;20042;-79
2024/02/29 02:02:39;;;;;;;17.40;7.47;;;;;;;;;;6179363;28;20058;-79
2024/02/29 02:05:41;;;;;;;20.98;8.23;;;;;;;;;;6177530;28;20089;-79
2024/02/29 02:08:43;;;;;;;19.92;8.40;;;;;;;;;;6179435;28;20145;-78
2024/02/29 02:11:44;;;;;;;20.48;7.45;;;;;;;;;;6182916;28;20529;-77
2024/02/29 02:14:46;;;;;;;17.13;7.45;;;;;;;;;;6179362;28;20707;-79
2024/02/29 02:17:49;;;;;;;18.23;7.05;;;;;;;;;;6180969;28;20563;-78
2024/02/29 02:20:54;;;;;;;16.98;7.13;;;;;;;;;;6161856;28;20073;-79
2024/02/29 02:23:55;;;;;;;14.25;6.70;;;;;;;;;;6185410;28;20109;-79
2024/02/29 02:26:57;;;;;;;17.90;6.93;;;;;;;;;;6180027;28;20076;-78
2024/02/29 02:29:59;;;;;;;16.00;6.70;;;;;;;;;;6189066;28;20050;-76
2024/02/29 02:33:01;;;;;;;17.73;7.10;;;;;;;;;;6197560;28;20077;-80
2024/02/29 02:36:03;;;;;;;14.65;6.50;;;;;;;;;;6183595;28;20128;-76
2024/02/29 02:39:05;;;;;;;15.15;6.63;;;;;;;;;;6175967;28;20050;-78
2024/02/29 02:42:06;;;;;;;19.50;8.70;;;;;;;;;;6181324;28;20467;-79
2024/02/29 02:45:08;;;;;;;20.08;7.63;;;;;;;;;;6174824;28;20042;-80
2024/02/29 02:48:10;;;;;;;22.10;8.75;;;;;;;;;;6182462;28;20061;-76
2024/02/29 02:51:12;;;;;;;20.10;7.63;;;;;;;;;;6179571;28;20046;-78
2024/02/29 02:54:13;;;;;;;16.98;7.55;;;;;;;;;;6184340;28;20050;-79
2024/02/29 02:57:15;;;;;;;18.13;7.85;;;;;;;;;;6180171;28;20053;-78
2024/02/29 03:00:17;;;;;;;19.42;7.68;;;;;;;;;;6179459;28;20051;-79
2024/02/29 03:03:19;;;;;;;16.77;8.05;;;;;;;;;;6178560;28;20042;-77
2024/02/29 03:06:21;;;;;;;23.02;7.55;;;;;;;;;;6176956;28;20055;-78
2024/02/29 03:09:22;;;;;;;22.30;8.10;;;;;;;;;;6156640;28;20055;-79
2024/02/29 03:12:24;;;;;;;21.15;8.20;;;;;;;;;;6151151;28;20059;-80
2024/02/29 03:15:26;;;;;;;19.17;6.97;;;;;;;;;;6183198;28;20145;-79
2024/02/29 03:18:28;;;;;;;19.58;7.78;;;;;;;;;;6177268;28;20050;-78
2024/02/29 03:21:30;;;;;;;20.15;8.43;;;;;;;;;;6186525;28;20125;-77
2024/02/29 03:24:31;;;;;;;17.95;7.85;;;;;;;;;;6165797;28;20061;-80
2024/02/29 03:27:33;;;;;;;16.65;6.53;;;;;;;;;;6174711;28;20137;-80
2024/02/29 03:30:35;;;;;;;21.98;7.90;;;;;;;;;;6181959;28;20102;-78
2024/02/29 03:33:37;;;;;;;23.40;8.13;;;;;;;;;;6186972;28;20049;-76
2024/02/29 03:36:38;;;;;;;17.38;7.28;;;;;;;;;;6184997;28;20055;-78
2024/02/29 03:39:40;;;;;;;20.10;7.43;;;;;;;;;;6180668;28;20141;-78
2024/02/29 03:42:42;;;;;;;19.77;7.70;;;;;;;;;;6185498;28;20416;-79
2024/02/29 03:45:44;;;;;;;21.60;8.32;;;;;;;;;;6185692;28;20620;-80
2024/02/29 03:48:45;;;;;;;19.13;7.05;;;;;;;;;;6188129;28;20050;-78
2024/02/29 03:51:47;;;;;;;18.85;6.75;;;;;;;;;;6176288;28;20054;-80
2024/02/29 03:54:48;;;;;;;23.77;7.65;;;;;;;;;;6179619;28;20068;-78
2024/02/29 03:57:50;;;;;;;18.35;7.63;;;;;;;;;;6179686;28;20053;-79
2024/02/29 04:00:53;;;;;;;19.38;7.10;;;;;;;;;;6181774;28;20070;-78
2024/02/29 04:03:55;;;;;;;14.98;7.13;;;;;;;;;;6184936;28;20047;-79
2024/02/29 04:06:57;;;;;;;17.25;6.93;;;;;;;;;;6183523;28;20042;-80
2024/02/29 04:09:59;;;;;;;20.67;7.32;;;;;;;;;;6162734;28;20487;-79
2024/02/29 04:13:00;;;;;;;16.75;7.13;;;;;;;;;;6178345;28;20137;-77
2024/02/29 04:16:02;;;;;;;20.90;8.13;;;;;;;;;;6184732;28;20504;-79
2024/02/29 04:19:05;;;;;;;17.33;6.75;;;;;;;;;;6186424;28;20046;-77
2024/02/29 04:22:08;;;;;;;16.75;7.45;;;;;;;;;;6165142;28;20042;-80
2024/02/29 04:25:10;;;;;;;17.95;7.82;;;;;;;;;;6182809;28;20045;-77
2024/02/29 04:28:17;;;;;;;23.45;7.55;;;;;;;;;;6200739;28;20069;-76
2024/02/29 04:31:19;;;;;;;17.52;7.75;;;;;;;;;;6185131;28;20441;-79
2024/02/29 04:34:21;;;;;;;22.13;8.25;;;;;;;;;;6189713;28;20050;-77
2024/02/29 04:37:22;;;;;;;24.58;7.90;;;;;;;;;;6181431;28;20129;-77
2024/02/29 04:40:26;;;;;;;16.80;7.75;;;;;;;;;;6184768;28;20523;-78
2024/02/29 04:43:28;;;;;;;21.90;8.18;;;;;;;;;;6165762;28;20635;-78
2024/02/29 04:46:31;;;;;;;22.80;8.25;;;;;;;;;;6183994;28;20531;-78
2024/02/29 04:49:33;;;;;;;23.02;8.93;;;;;;;;;;6179585;28;20759;-79
2024/02/29 04:52:35;;;;;;;21.02;7.53;;;;;;;;;;6197742;28;20390;-79
2024/02/29 04:55:37;;;;;;;18.13;7.43;;;;;;;;;;6173761;28;20046;-79
2024/02/29 04:58:39;;;;;;;23.50;9.13;;;;;;;;;;6183452;28;20053;-78
2024/02/29 05:01:40;;;;;;;22.38;9.57;;;;;;;;;;6181547;28;20050;-78
2024/02/29 05:04:42;;;;;;;21.42;9.68;;;;;;;;;;6179882;28;20047;-78
2024/02/29 05:07:44;;;;;;;24.17;9.10;;;;;;;;;;6178149;28;20516;-77
2024/02/29 05:10:46;;;;;;;20.60;8.82;;;;;;;;;;6178863;28;20133;-79
2024/02/29 05:13:48;;;;;;;18.88;8.07;;;;;;;;;;6180304;28;20505;-79
2024/02/29 05:16:50;;;;;;;24.27;9.15;;;;;;;;;;6181384;28;20042;-78
2024/02/29 05:19:52;;;;;;;22.65;8.38;;;;;;;;;;6176925;28;20054;-79
2024/02/29 05:22:54;;;;;;;26.05;8.30;;;;;;;;;;6182132;28;20149;-79
2024/02/29 05:25:56;;;;;;;29.42;8.98;;;;;;;;;;6178302;28;20568;-78
2024/02/29 05:28:57;;;;;;;27.38;11.38;;;;;;;;;;6185578;28;20050;-79
2024/02/29 05:32:00;;;;;;;25.15;9.98;;;;;;;;;;6185057;28;20164;-79
2024/02/29 05:35:03;;;;;;;25.98;9.80;;;;;;;;;;6179448;28;20054;-79
2024/02/29 05:38:07;;;;;;;;;;;;;;;;;;6176575;28;20057;-77
2024/02/29 05:41:09;;;;;;;19.83;8.00;;;;;;;;;;6177128;28;19929;-77
2024/02/29 05:44:10;;;;;;;26.27;9.93;;;;;;;;;;6190245;28;20129;-77
2024/02/29 05:47:12;;;;;;;23.33;8.60;;;;;;;;;;6162991;28;20046;-77
2024/02/29 05:50:14;;;;;;;25.75;9.20;;;;;;;;;;6155414;28;20062;-76
2024/02/29 05:53:15;;;;;;;27.25;9.95;;;;;;;;;;6188223;28;20066;-77
2024/02/29 05:56:17;;;;;;;23.75;9.40;;;;;;;;;;6189395;28;20034;-77
2024/02/29 05:59:19;;;;;;;25.35;9.60;;;;;;;;;;6183522;28;20525;-78
2024/02/29 06:02:20;;;;;;;24.25;9.02;;;;;;;;;;6178204;28;20050;-78
2024/02/29 06:05:22;;;;;;;30.83;10.05;;;;;;;;;;6181705;28;20113;-74
2024/02/29 06:08:24;;;;;;;22.83;8.65;;;;;;;;;;6177597;28;20062;-77
2024/02/29 06:11:25;;;;;;;21.77;8.20;;;;;;;;;;6182281;28;20051;-77
2024/02/29 06:14:27;;;;;;;22.48;9.35;;;;;;;;;;6180247;28;20056;-78
2024/02/29 06:17:29;;;;;;;29.00;9.52;;;;;;;;;;6170149;28;20128;-79
2024/02/29 06:20:31;;;;;;;24.27;9.27;;;;;;;;;;6175604;28;20054;-76
2024/02/29 06:23:32;;;;;;;26.60;8.85;;;;;;;;;;6180293;28;20549;-80
2024/02/29 06:26:34;;;;;;;26.20;9.93;;;;;;;;;;6178996;28;20500;-79
2024/02/29 06:29:36;;;;;;;103.30;38.72;;;;;;;;;;6186320;28;20123;-80
2024/02/29 06:32:43;;;;;;;50.22;19.05;;;;;;;;;;6192540;28;20046;-78
2024/02/29 06:35:45;;;;;;;34.13;12.00;;;;;;;;;;6183893;28;20117;-77
2024/02/29 06:38:47;;;;;;;41.88;16.20;;;;;;;;;;6187624;28;20050;-76
2024/02/29 06:41:49;;;;;;;47.20;17.95;;;;;;;;;;6191906;28;20517;-77
2024/02/29 06:44:52;;;;;;;28.30;12.55;;;;;;;;;;6188362;28;20046;-77
2024/02/29 06:47:53;;;;;;;29.48;11.85;;;;;;;;;;6187007;28;20165;-77
2024/02/29 06:50:55;;;;;;;26.80;11.48;;;;;;;;;;6187406;28;20123;-77
2024/02/29 06:53:56;;;;;;;25.95;11.88;;;;;;;;;;6178326;28;20046;-76
2024/02/29 06:56:58;;;;;;;24.90;11.80;;;;;;;;;;6193082;28;20054;-76
2024/02/29 07:00:00;;;;;;;26.23;11.82;;;;;;;;;;6187145;28;20046;-76
2024/02/29 07:03:02;;;;;;;29.00;12.68;;;;;;;;;;6181987;28;20130;-79
2024/02/29 07:06:04;;;;;;;27.20;10.52;;;;;;;;;;6181961;28;20050;-79
2024/02/29 07:09:06;;;;;;;23.35;10.88;;;;;;;;;;6180111;28;20045;-79
2024/02/29 07:12:07;;;;;;;26.50;12.13;;;;;;;;;;6186032;28;20133;-78
2024/02/29 07:15:09;;;;;;;31.15;12.68;;;;;;;;;;6186377;28;20536;-78
2024/02/29 07:18:11;;;;;;;25.60;10.90;;;;;;;;;;6180489;28;20046;-78
2024/02/29 07:21:13;;;;;;;30.00;13.93;;;;;;;;;;6183841;28;20046;-79
2024/02/29 07:24:15;;;;;;;30.27;12.25;;;;;;;;;;6188175;28;20322;-80
2024/02/29 07:27:17;;;;;;;34.08;15.23;;;;;;;;;;6195738;28;20050;-80
2024/02/29 07:30:19;;;;;;;29.75;12.82;;;;;;;;;;6185350;28;20054;-80
2024/02/29 07:33:21;;;;;;;26.05;11.43;;;;;;;;;;6181476;28;20052;-78
2024/02/29 07:36:22;;;;;;;22.23;9.80;;;;;;;;;;6178557;28;20042;-79
2024/02/29 07:39:24;;;;;;;25.00;10.80;;;;;;;;;;6183184;28;20588;-81
2024/02/29 07:42:26;;;;;;;29.77;12.38;;;;;;;;;;6183730;28;20078;-80
2024/02/29 07:45:28;;;;;;;29.77;12.10;;;;;;;;;;6184406;28;20046;-81
2024/02/29 07:48:29;;;;;;;29.23;13.50;;;;;;;;;;6185708;28;20403;-81
2024/02/29 07:51:31;;;;;;;32.70;13.75;;;;;;;;;;6178727;28;20050;-80
2024/02/29 07:54:33;;;;;;;26.60;12.50;;;;;;;;;;6197819;28;20109;-79
2024/02/29 07:57:35;;;;;;;26.88;11.93;;;;;;;;;;6197057;28;20453;-79
2024/02/29 08:00:37;;;;;;;23.50;10.43;;;;;;;;;;6201043;28;20039;-83
2024/02/29 08:03:39;;;;;;;28.73;11.50;;;;;;;;;;6184287;28;20137;-83
2024/02/29 08:06:41;;;;;;;24.95;11.02;;;;;;;;;;6184979;28;20457;-84
2024/02/29 08:09:43;;;;;;;28.42;11.38;;;;;;;;;;6182582;28;20146;-80
2024/02/29 08:12:44;;;;;;;25.33;11.52;;;;;;;;;;6176220;28;20488;-84
2024/02/29 08:15:46;;;;;;;29.90;13.10;;;;;;;;;;6184865;28;20505;-84
2024/02/29 08:18:49;;;;;;;25.67;11.82;;;;;;;;;;6186825;28;20042;-83
2024/02/29 08:21:50;;;;;;;30.65;12.63;;;;;;;;;;6176739;28;20129;-83
2024/02/29 08:24:52;;;;;;;28.48;13.02;;;;;;;;;;6180591;28;20043;-82
2024/02/29 08:27:54;;;;;;;30.35;12.98;;;;;;;;;;6185006;28;20093;-82
2024/02/29 08:30:55;;;;;;;35.25;15.07;;;;;;;;;;6170597;28;20142;-83
2024/02/29 08:33:57;;;;;;;28.17;13.00;;;;;;;;;;6184392;28;20042;-81
2024/02/29 08:36:59;;;;;;;30.58;14.32;;;;;;;;;;6173746;28;20054;-81
2024/02/29 08:40:10;;;;;;;31.00;14.00;;;;;;;;;;6178947;28;20497;-81
2024/02/29 08:43:13;;;;;;;32.85;14.63;;;;;;;;;;6181464;28;20050;-80
2024/02/29 08:46:14;;;;;;;29.92;14.27;;;;;;;;;;6177130;28;20065;-81
2024/02/29 08:49:17;;;;;;;32.88;15.18;;;;;;;;;;6176977;28;20086;-82
2024/02/29 08:52:19;;;;;;;30.93;14.73;;;;;;;;;;6177646;28;20042;-80
2024/02/29 08:55:21;;;;;;;36.67;18.58;;;;;;;;;;6164607;28;21056;-81
2024/02/29 08:58:23;;;;;;;30.58;15.00;;;;;;;;;;6198101;28;20079;-79
2024/02/29 09:01:26;;;;;;;44.40;23.77;;;;;;;;;;6183733;28;20173;-82
2024/02/29 09:04:28;;;;;;;53.37;39.93;;;;;;;;;;6175172;28;20522;-80
2024/02/29 09:07:29;;;;;;;46.40;26.40;;;;;;;;;;6174674;28;20042;-81
2024/02/29 09:10:31;;;;;;;35.72;15.50;;;;;;;;;;6179682;28;20053;-82
2024/02/29 09:13:33;;;;;;;38.35;17.27;;;;;;;;;;6183326;28;20611;-81
2024/02/29 09:16:37;;;;;;;33.25;15.38;;;;;;;;;;6182066;28;20456;-81
2024/02/29 09:19:39;;;;;;;37.28;20.75;;;;;;;;;;6176311;28;20050;-81
2024/02/29 09:22:40;;;;;;;32.00;15.13;;;;;;;;;;6185057;28;20053;-80
2024/02/29 09:25:42;;;;;;;34.17;14.65;;;;;;;;;;6184966;28;20038;-81
2024/02/29 09:28:45;;;;;;;32.63;14.80;;;;;;;;;;6179804;28;20102;-79
2024/02/29 09:31:46;;;;;;;29.93;14.13;;;;;;;;;;6178886;28;20046;-81
2024/02/29 09:34:48;;;;;;;30.42;15.73;;;;;;;;;;6182101;28;20090;-80
2024/02/29 09:37:52;;;;;;;31.13;14.65;;;;;;;;;;6178337;28;20039;-81
2024/02/29 09:40:56;;;;;;;26.05;13.60;;;;;;;;;;6176256;28;20053;-81
2024/02/29 09:44:15;;;;;;;27.98;13.93;;;;;;;;;;6182198;28;20633;-80
2024/02/29 09:47:22;;;;;;;25.80;12.55;;;;;;;;;;6186132;28;20073;-82
2024/02/29 09:50:23;;;;;;;41.95;22.25;;;;;;;;;;6176747;28;20090;-80
2024/02/29 09:53:27;;;;;;;26.48;12.95;;;;;;;;;;6163030;28;20839;-80
2024/02/29 09:56:29;;;;;;;27.35;12.85;;;;;;;;;;6179859;28;20510;-82
2024/02/29 09:59:33;;;;;;;26.50;13.48;;;;;;;;;;6179617;28;20054;-83
2024/02/29 10:02:34;;;;;;;27.58;13.68;;;;;;;;;;6177072;28;20047;-81
2024/02/29 10:05:36;;;;;;;25.15;13.07;;;;;;;;;;6187525;28;20054;-82
2024/02/29 10:08:41;;;;;;;24.98;12.52;;;;;;;;;;6200261;28;20046;-84
2024/02/29 10:11:43;;;;;;;23.65;12.13;;;;;;;;;;6189116;28;20050;-80
2024/02/29 10:14:48;;;;;;;25.17;12.98;;;;;;;;;;6185319;28;20057;-80
2024/02/29 10:17:50;;;;;;;30.33;12.43;;;;;;;;;;6187606;28;20046;-79
2024/02/29 10:20:52;;;;;;;25.60;13.20;;;;;;;;;;6173907;28;20054;-82
2024/02/29 10:23:56;;;;;;;23.20;12.25;;;;;;;;;;6182425;28;20093;-81
2024/02/29 10:27:02;;;;;;;27.95;12.50;;;;;;;;;;6184752;28;20050;-81
2024/02/29 10:30:10;;;;;;;24.55;12.65;;;;;;;;;;6183780;28;20054;-81
2024/02/29 10:33:13;;;;;;;24.40;12.25;;;;;;;;;;6183791;28;20127;-80
2024/02/29 10:36:15;;;;;;;22.73;12.15;;;;;;;;;;6172949;28;20114;-81
2024/02/29 10:39:16;;;;;;;21.92;11.55;;;;;;;;;;6182881;28;20124;-83
2024/02/29 10:42:18;;;;;;;22.40;11.77;;;;;;;;;;6197827;28;20412;-82
2024/02/29 10:45:22;;;;;;;23.83;12.65;;;;;;;;;;6185542;28;20039;-83
2024/02/29 10:48:33;;;;;;;25.55;12.68;;;;;;;;;;6196271;28;20109;-80
2024/02/29 10:51:52;;;;;;;22.50;11.23;;;;;;;;;;6191748;28;20212;-81
2024/02/29 10:55:08;;;;;;;22.05;11.13;;;;;;;;;;6172997;28;20476;-79
2024/02/29 10:58:22;;;;;;;23.50;10.95;;;;;;;;;;6164594;28;20432;-82
2024/02/29 11:01:25;;;;;;;25.08;12.13;;;;;;;;;;6200119;28;20524;-83
2024/02/29 11:04:27;;;;;;;;;;;;;;;;;;6182122;28;20054;-83
2024/02/29 11:07:29;;;;;;;21.17;11.48;;;;;;;;;;6195755;28;19922;-82
2024/02/29 11:10:31;;;;;;;23.77;12.18;;;;;;;;;;6181281;28;20065;-82
2024/02/29 11:13:34;;;;;;;24.80;13.10;;;;;;;;;;6188244;28;20109;-83
2024/02/29 11:16:41;;;;;;;22.58;12.60;;;;;;;;;;6170321;28;20042;-82
2024/02/29 11:19:45;;;;;;;21.73;11.65;;;;;;;;;;6192807;28;20046;-83
2024/02/29 11:23:04;;;;;;;22.45;11.07;;;;;;;;;;6175164;28;20058;-81
2024/02/29 11:26:12;;;;;;;24.55;11.88;;;;;;;;;;6180213;28;20047;-80
2024/02/29 11:29:14;;;;;;;21.58;11.27;;;;;;;;;;6181344;28;20117;-82
2024/02/29 11:32:24;;;;;;;24.10;11.70;;;;;;;;;;6189690;28;20061;-81
2024/02/29 11:35:26;;;;;;;23.90;11.55;;;;;;;;;;6178930;28;20054;-81
2024/02/29 11:38:28;;;;;;;24.65;12.95;;;;;;;;;;6183730;28;20043;-80
2024/02/29 11:41:40;;;;;;;24.13;12.13;;;;;;;;;;6181862;28;20419;-81
2024/02/29 11:44:48;;;;;;;21.27;12.25;;;;;;;;;;6195111;28;20046;-80
2024/02/29 11:47:50;;;;;;;21.83;10.93;;;;;;;;;;6184896;28;20035;-81
2024/02/29 11:50:52;;;;;;;22.40;10.55;;;;;;;;;;6180701;28;20560;-82
2024/02/29 11:53:54;;;;;;;24.50;12.32;;;;;;;;;;6185310;28;20066;-84
2024/02/29 11:56:56;;;;;;;20.80;11.43;;;;;;;;;;6185299;28;20049;-82
2024/02/29 11:59:58;;;;;;;20.45;10.85;;;;;;;;;;6185102;28;20053;-82
2024/02/29 12:02:59;;;;;;;24.80;12.30;;;;;;;;;;6181952;28;20054;-83
2024/02/29 12:06:01;;;;;;;22.23;11.13;;;;;;;;;;6179478;28;20065;-80
2024/02/29 12:09:03;;;;;;;23.85;11.20;;;;;;;;;;6177914;28;20121;-82
2024/02/29 12:12:06;;;;;;;22.70;10.87;;;;;;;;;;6182247;28;20058;-83
2024/02/29 12:15:08;;;;;;;24.38;11.57;;;;;;;;;;6183181;28;20781;-82
2024/02/29 12:18:10;;;;;;;22.15;11.23;;;;;;;;;;6177960;28;20120;-82
2024/02/29 12:21:13;;;;;;;22.85;11.60;;;;;;;;;;6180068;28;20058;-81
2024/02/29 12:24:14;;;;;;;25.23;12.48;;;;;;;;;;6204602;28;20061;-83
2024/02/29 12:27:16;;;;;;;22.10;10.73;;;;;;;;;;6187705;28;20419;-81
2024/02/29 12:30:19;;;;;;;25.02;10.98;;;;;;;;;;6185199;28;20088;-81
2024/02/29 12:33:23;;;;;;;21.55;11.35;;;;;;;;;;6171352;28;20059;-82
2024/02/29 12:36:28;;;;;;;23.90;12.45;;;;;;;;;;6198547;28;20092;-81
2024/02/29 12:39:30;;;;;;;19.87;11.17;;;;;;;;;;6185379;28;20053;-82
2024/02/29 12:42:33;;;;;;;26.05;12.85;;;;;;;;;;6187380;28;20050;-83
2024/02/29 12:45:35;;;;;;;22.60;12.02;;;;;;;;;;6177243;28;20120;-83
2024/02/29 12:48:37;;;;;;;23.10;12.38;;;;;;;;;;6179712;28;20054;-82
2024/02/29 12:51:39;;;;;;;24.38;12.18;;;;;;;;;;6191312;28;20049;-82
2024/02/29 12:54:41;;;;;;;25.83;12.43;;;;;;;;;;6169622;28;20135;-82
2024/02/29 12:57:43;;;;;;;22.70;11.63;;;;;;;;;;6195145;28;20046;-83
2024/02/29 13:00:44;;;;;;;23.13;11.65;;;;;;;;;;6181685;28;20050;-83
2024/02/29 13:03:47;;;;;;;39.25;18.35;;;;;;;;;;6180113;28;20057;-83
2024/02/29 13:06:48;;;;;;;21.00;10.95;;;;;;;;;;6180073;28;20130;-83
2024/02/29 13:09:51;;;;;;;20.25;11.10;;;;;;;;;;6180379;28;20058;-83
2024/02/29 13:12:53;;;;;;;21.42;11.50;;;;;;;;;;6186618;28;20046;-83
2024/02/29 13:16:04;;;;;;;23.17;11.10;;;;;;;;;;6185087;28;20054;-81
2024/02/29 13:19:06;;;;;;;26.35;12.27;;;;;;;;;;6181719;28;20046;-81
2024/02/29 13:22:08;;;;;;;24.58;12.35;;;;;;;;;;6178737;28;20074;-83
2024/02/29 13:25:10;;;;;;;20.85;11.85;;;;;;;;;;6180782;28;20061;-81
2024/02/29 13:28:13;;;;;;;21.20;11.25;;;;;;;;;;6182640;28;20050;-82
2024/02/29 13:31:15;;;;;;;22.90;11.15;;;;;;;;;;6180862;28;20042;-83
2024/02/29 13:34:17;;;;;;;23.55;12.77;;;;;;;;;;6171076;28;20047;-81
2024/02/29 13:37:19;;;;;;;23.58;11.15;;;;;;;;;;6174759;28;20046;-81
2024/02/29 13:40:21;;;;;;;24.92;11.68;;;;;;;;;;6173992;28;20046;-81
2024/02/29 13:43:23;;;;;;;25.27;11.65;;;;;;;;;;6178872;28;20144;-80
2024/02/29 13:46:28;;;;;;;27.20;13.55;;;;;;;;;;6183565;28;20373;-82
2024/02/29 13:49:30;;;;;;;21.35;11.63;;;;;;;;;;6177141;28;20058;-81
2024/02/29 13:52:32;;;;;;;22.13;11.60;;;;;;;;;;6168824;28;20046;-80
2024/02/29 13:55:33;;;;;;;23.77;11.60;;;;;;;;;;6180360;28;20063;-80
2024/02/29 13:58:36;;;;;;;22.80;11.77;;;;;;;;;;6180088;28;20047;-81
2024/02/29 14:01:37;;;;;;;24.38;11.38;;;;;;;;;;6179530;28;20624;-82
2024/02/29 14:04:39;;;;;;;20.52;10.75;;;;;;;;;;6166141;28;20497;-81
2024/02/29 14:07:41;;;;;;;22.02;11.48;;;;;;;;;;6179664;28;20158;-81
2024/02/29 14:10:46;;;;;;;22.73;11.13;;;;;;;;;;6170001;28;20051;-81
2024/02/29 14:13:48;;;;;;;23.05;11.18;;;;;;;;;;6191429;28;20575;-82
2024/02/29 14:16:51;;;;;;;23.10;11.33;;;;;;;;;;6178460;28;20047;-82
2024/02/29 14:19:52;;;;;;;;;;;;;;;;;;6177774;28;20049;-81
2024/02/29 14:22:55;;;;;;;19.45;10.25;;;;;;;;;;6175472;28;20009;-82
2024/02/29 14:25:57;;;;;;;22.60;11.73;;;;;;;;;;6177545;28;20061;-81
2024/02/29 14:28:59;;;;;;;19.80;10.60;;;;;;;;;;6176343;28;20046;-82
2024/02/29 14:32:01;;;;;;;23.70;10.70;;;;;;;;;;6182153;28;20043;-80
2024/02/29 14:35:06;;;;;;;21.65;9.95;;;;;;;;;;6181834;28;20053;-80
2024/02/29 14:38:08;;;;;;;22.67;11.38;;;;;;;;;;6211690;28;20129;-81
2024/02/29 14:41:10;;;;;;;19.50;10.77;;;;;;;;;;6190381;28;20050;-80
2024/02/29 14:44:11;;;;;;;20.73;11.07;;;;;;;;;;6186070;28;20050;-80
2024/02/29 14:47:13;;;;;;;23.60;11.20;;;;;;;;;;6181286;28;20081;-81
2024/02/29 14:50:15;;;;;;;18.25;10.00;;;;;;;;;;6181856;28;20078;-81
2024/02/29 14:53:16;;;;;;;19.08;10.07;;;;;;;;;;6177142;28;20046;-81
2024/02/29 14:56:19;;;;;;;21.33;10.73;;;;;;;;;;6191704;28;20050;-79
2024/02/29 14:59:20;;;;;;;25.35;11.95;;;;;;;;;;6181363;28;20061;-80
2024/02/29 15:02:23;;;;;;;21.70;10.82;;;;;;;;;;6195426;28;20063;-80
2024/02/29 15:05:25;;;;;;;19.63;10.45;;;;;;;;;;6179520;28;20051;-80
2024/02/29 15:08:26;;;;;;;21.20;10.75;;;;;;;;;;6153804;28;20047;-81
2024/02/29 15:11:29;;;;;;;19.77;10.35;;;;;;;;;;6178466;28;20050;-79
2024/02/29 15:14:32;;;;;;;18.75;10.43;;;;;;;;;;6177405;28;20193;-79
2024/02/29 15:17:34;;;;;;;22.50;11.52;;;;;;;;;;6174653;28;20051;-81
2024/02/29 15:20:36;;;;;;;17.20;10.70;;;;;;;;;;6160506;28;20144;-82
2024/02/29 15:23:38;;;;;;;20.52;9.73;;;;;;;;;;6176357;28;20812;-81
2024/02/29 15:26:40;;;;;;;19.73;9.88;;;;;;;;;;6175877;28;20043;-81
2024/02/29 15:29:44;;;;;;;20.30;9.55;;;;;;;;;;6181789;28;20043;-81
2024/02/29 15:32:46;;;;;;;17.80;9.50;;;;;;;;;;6178504;28;20046;-80
2024/02/29 15:35:48;;;;;;;16.48;9.52;;;;;;;;;;6183871;28;20522;-81
2024/02/29 15:38:51;;;;;;;17.25;9.25;;;;;;;;;;6154872;28;20057;-80
2024/02/29 15:41:52;;;;;;;18.70;9.57;;;;;;;;;;6179858;28;20046;-81
2024/02/29 15:44:54;;;;;;;17.77;9.48;;;;;;;;;;6185276;28;20062;-78
2024/02/29 15:47:56;;;;;;;19.58;9.15;;;;;;;;;;6183672;28;20054;-80
2024/02/29 15:51:00;;;;;;;17.27;8.80;;;;;;;;;;6181435;28;20770;-81
2024/02/29 15:54:03;;;;;;;15.43;8.45;;;;;;;;;;6187923;28;20042;-80
2024/02/29 15:57:06;;;;;;;18.13;8.95;;;;;;;;;;6179604;28;20050;-80
2024/02/29 16:00:08;;;;;;;19.33;10.02;;;;;;;;;;6181379;28;20078;-79
2024/02/29 16:03:13;;;;;;;20.95;10.05;;;;;;;;;;6177546;28;20041;-80
2024/02/29 16:06:14;;;;;;;18.80;9.77;;;;;;;;;;6178842;28;20424;-81
2024/02/29 16:09:16;;;;;;;19.42;10.23;;;;;;;;;;6175861;28;20038;-81
2024/02/29 16:12:18;;;;;;;19.42;10.30;;;;;;;;;;6187447;28;20050;-79
2024/02/29 16:15:19;;;;;;;22.23;11.25;;;;;;;;;;6186650;28;20049;-80
2024/02/29 16:18:21;;;;;;;20.70;10.95;;;;;;;;;;6191356;28;20046;-82
2024/02/29 16:21:23;;;;;;;23.77;11.60;;;;;;;;;;6195559;28;20058;-81
2024/02/29 16:24:25;;;;;;;20.05;11.18;;;;;;;;;;6184549;28;20054;-81
2024/02/29 16:27:27;;;;;;;28.77;13.70;;;;;;;;;;6179641;28;20051;-81
2024/02/29 16:30:29;;;;;;;22.23;11.63;;;;;;;;;;6189381;28;20594;-80
2024/02/29 16:33:30;;;;;;;24.13;11.73;;;;;;;;;;6185327;28;20049;-81
2024/02/29 16:36:32;;;;;;;22.10;10.32;;;;;;;;;;6175504;28;20054;-80
2024/02/29 16:39:34;;;;;;;24.27;11.55;;;;;;;;;;6178401;28;20046;-82
2024/02/29 16:42:36;;;;;;;19.92;9.82;;;;;;;;;;6183773;28;20066;-81
2024/02/29 16:45:40;;;;;;;20.00;10.27;;;;;;;;;;6188662;28;20108;-82
2024/02/29 16:48:42;;;;;;;17.20;8.60;;;;;;;;;;6177210;28;20944;-81
2024/02/29 16:51:44;;;;;;;18.35;9.35;;;;;;;;;;6179723;28;20173;-80
2024/02/29 16:54:45;;;;;;;18.52;9.25;;;;;;;;;;6191489;28;20198;-79
2024/02/29 16:57:48;;;;;;;18.23;9.05;;;;;;;;;;6186882;28;20050;-79
2024/02/29 17:00:49;;;;;;;29.20;12.67;;;;;;;;;;6199755;28;20046;-81
2024/02/29 17:03:51;;;;;;;23.48;11.40;;;;;;;;;;6195765;28;20450;-80
2024/02/29 17:06:53;;;;;;;22.90;10.88;;;;;;;;;;6176366;28;20128;-81
2024/02/29 17:09:58;;;;;;;25.73;11.27;;;;;;;;;;6191442;28;20078;-81
2024/02/29 17:13:00;;;;;;;24.30;13.00;;;;;;;;;;6180846;28;20050;-81
2024/02/29 17:16:02;;;;;;;22.30;11.48;;;;;;;;;;6180034;28;20042;-79
2024/02/29 17:19:05;;;;;;;22.48;10.55;;;;;;;;;;6175260;28;20042;-79
2024/02/29 17:22:07;;;;;;;25.80;11.35;;;;;;;;;;6172312;28;20133;-78
2024/02/29 17:25:08;;;;;;;21.15;11.02;;;;;;;;;;6176973;28;20043;-80
2024/02/29 17:28:10;;;;;;;21.67;9.82;;;;;;;;;;6176478;28;20061;-78
2024/02/29 17:31:12;;;;;;;23.08;9.98;;;;;;;;;;6166299;28;20046;-83
2024/02/29 17:34:14;;;;;;;22.80;11.07;;;;;;;;;;6173483;28;20393;-83
2024/02/29 17:37:16;;;;;;;37.88;18.85;;;;;;;;;;6187605;28;20089;-77
2024/02/29 17:40:22;;;;;;;28.45;15.10;;;;;;;;;;6169986;28;20057;-81
2024/02/29 17:43:25;;;;;;;36.55;16.38;;;;;;;;;;6179049;28;20050;-79
2024/02/29 17:46:27;;;;;;;62.03;25.77;;;;;;;;;;6180995;28;20061;-79
2024/02/29 17:49:31;;;;;;;45.13;20.17;;;;;;;;;;6175809;28;20039;-81